Terminal Aerodrome Forecast
Issued by NWS

Home | Current Version | Previous Version | Text Only | Print | Product List | Glossary On
Versions: 1 2 3 4 5 6 7 8 9 10 11 12 13 14 15 16 17 18 19
000
FTUS43 KDLH 231026 AAA
TAFHIB
TAF AMD
KHIB 231026Z 2310/2406 02008KT P6SM FEW007 SCT014 OVC060
      TEMPO 2310/2312 2SM -SHSN OVC015
     FM231300 04007KT 6SM -SHRASN OVC015
     FM231600 07008KT P6SM VCSH SCT015 BKN030
     FM240000 09007KT P6SM BKN025=

USA.gov is the U.S. government's official web portal to all federal, state and local government web resources and services.